createdAt,value
2019-01-19T00:00:48.165Z,0
2019-01-19T00:01:57.878Z,0
2019-01-19T00:03:07.820Z,0
2019-01-19T00:04:17.522Z,0
2019-01-19T00:05:27.502Z,0
2019-01-19T00:06:37.205Z,0
2019-01-19T00:07:46.892Z,0
2019-01-19T00:08:56.326Z,0
2019-01-19T00:10:06.270Z,0
2019-01-19T00:11:15.946Z,0
2019-01-19T00:12:25.957Z,0
2019-01-19T00:13:35.912Z,0
2019-01-19T00:14:45.859Z,0
2019-01-19T00:15:55.791Z,0
2019-01-19T00:17:05.726Z,0
2019-01-19T00:18:15.428Z,0
2019-01-19T00:19:25.132Z,0
2019-01-19T00:20:34.814Z,0
2019-01-19T00:21:44.505Z,0
2019-01-19T00:22:54.436Z,0
2019-01-19T00:24:04.401Z,0
2019-01-19T00:25:14.100Z,0
2019-01-19T00:26:23.792Z,0
2019-01-19T00:27:33.730Z,0
2019-01-19T00:28:43.414Z,0
2019-01-19T00:29:53.112Z,0
2019-01-19T00:31:03.047Z,0
2019-01-19T00:32:12.470Z,0
2019-01-19T00:33:22.414Z,0
2019-01-19T00:34:38.549Z,0
2019-01-19T00:35:48.491Z,0
2019-01-19T00:36:58.419Z,0
2019-01-19T00:38:08.115Z,0
2019-01-19T00:39:17.823Z,0
2019-01-19T00:40:27.516Z,0
2019-01-19T00:41:37.453Z,0
2019-01-19T00:42:47.435Z,0
2019-01-19T00:43:57.381Z,0
2019-01-19T00:45:07.362Z,0
2019-01-19T00:46:17.307Z,0
2019-01-19T00:47:27.274Z,0
2019-01-19T00:48:36.967Z,0
2019-01-19T00:49:46.917Z,0
2019-01-19T00:50:56.854Z,0
2019-01-19T00:52:06.538Z,0
2019-01-19T00:53:16.197Z,0
2019-01-19T00:54:26.125Z,0
2019-01-19T00:55:36.047Z,0
2019-01-19T00:56:45.987Z,0
2019-01-19T00:57:55.668Z,0
2019-01-19T00:59:05.428Z,0
2019-01-19T01:00:15.370Z,0
2019-01-19T01:01:25.319Z,0
2019-01-19T01:02:34.751Z,0
2019-01-19T01:03:44.695Z,0
2019-01-19T01:04:54.386Z,0
2019-01-19T01:06:04.314Z,0
2019-01-19T01:07:14.252Z,0
2019-01-19T01:08:24.169Z,0
2019-01-19T01:09:33.845Z,0
2019-01-19T01:10:43.777Z,0
2019-01-19T01:11:53.748Z,0
2019-01-19T01:13:03.685Z,0
2019-01-19T01:14:13.633Z,0
2019-01-19T01:15:23.330Z,0
2019-01-19T01:16:33.274Z,0
2019-01-19T01:17:42.968Z,0
2019-01-19T01:18:52.905Z,0
2019-01-19T01:20:02.336Z,0
2019-01-19T01:21:11.767Z,0
2019-01-19T01:22:21.714Z,0
2019-01-19T01:23:31.643Z,0
2019-01-19T01:24:41.573Z,0
2019-01-19T01:25:51.257Z,0
2019-01-19T01:27:01.188Z,0
2019-01-19T01:28:10.888Z,0
2019-01-19T01:29:20.574Z,0
2019-01-19T01:30:30.495Z,0
2019-01-19T01:31:40.426Z,0
2019-01-19T01:32:49.846Z,0
2019-01-19T01:33:59.786Z,0
2019-01-19T01:35:09.322Z,0
2019-01-19T01:36:19.255Z,0
2019-01-19T01:37:28.950Z,0
2019-01-19T01:38:38.890Z,0
2019-01-19T01:39:48.336Z,0
2019-01-19T01:40:58.042Z,0
2019-01-19T01:42:07.726Z,0
2019-01-19T01:43:17.408Z,0
2019-01-19T01:44:27.360Z,0
2019-01-19T01:45:37.303Z,0
2019-01-19T01:46:46.995Z,0
2019-01-19T01:47:56.692Z,0
2019-01-19T01:49:06.141Z,0
2019-01-19T01:50:15.830Z,0
2019-01-19T01:51:25.785Z,0
2019-01-19T01:52:35.781Z,0
2019-01-19T01:53:45.722Z,0
2019-01-19T01:54:55.674Z,0
2019-01-19T01:56:05.624Z,0
2019-01-19T01:57:15.558Z,0
2019-01-19T01:58:24.989Z,0
2019-01-19T01:59:34.183Z,0
2019-01-19T02:00:44.110Z,0
2019-01-19T02:01:54.114Z,0
2019-01-19T02:03:04.050Z,0
2019-01-19T02:04:13.993Z,0
2019-01-19T02:05:23.679Z,0
2019-01-19T02:06:33.609Z,0
2019-01-19T02:07:43.292Z,0
2019-01-19T02:08:53.236Z,0
2019-01-19T02:10:03.185Z,0
2019-01-19T02:11:13.126Z,0
2019-01-19T02:12:22.818Z,0
2019-01-19T02:13:32.525Z,0
2019-01-19T02:14:42.470Z,0
2019-01-19T02:15:52.408Z,0
2019-01-19T02:17:02.100Z,0
2019-01-19T02:18:12.048Z,0
2019-01-19T02:19:21.985Z,0
2019-01-19T02:20:31.918Z,0
2019-01-19T02:21:41.299Z,0
2019-01-19T02:22:51.255Z,0
2019-01-19T02:24:00.703Z,0
2019-01-19T02:25:10.666Z,0
2019-01-19T02:26:20.607Z,0
2019-01-19T02:27:30.537Z,0
2019-01-19T02:28:40.462Z,0
2019-01-19T02:29:50.148Z,0
2019-01-19T02:30:59.847Z,0
2019-01-19T02:32:09.572Z,0
2019-01-19T02:33:19.271Z,0
2019-01-19T02:34:29.199Z,0
2019-01-19T02:35:39.148Z,0
2019-01-19T02:36:48.582Z,0
2019-01-19T02:37:58.526Z,0
2019-01-19T02:39:08.460Z,0
2019-01-19T02:40:18.397Z,0
2019-01-19T02:41:28.091Z,0
2019-01-19T02:42:37.778Z,0
2019-01-19T02:43:47.730Z,0
2019-01-19T02:44:57.691Z,0
2019-01-19T02:46:07.634Z,0
2019-01-19T02:47:17.573Z,0
2019-01-19T02:48:27.519Z,0
2019-01-19T02:49:37.235Z,0
2019-01-19T02:50:47.240Z,0
2019-01-19T02:51:57.181Z,0
2019-01-19T02:53:07.136Z,0
2019-01-19T02:54:16.832Z,0
2019-01-19T02:55:26.792Z,0
2019-01-19T02:56:36.478Z,0
2019-01-19T02:57:46.170Z,0
2019-01-19T02:58:56.101Z,0
2019-01-19T03:00:05.787Z,0
2019-01-19T03:01:15.492Z,0
2019-01-19T03:02:24.927Z,0
2019-01-19T03:03:34.866Z,0
2019-01-19T03:04:44.794Z,0
2019-01-19T03:06:01.005Z,0
2019-01-19T03:07:10.938Z,0
2019-01-19T03:08:20.891Z,0
2019-01-19T03:09:30.586Z,0
2019-01-19T03:10:40.524Z,0
2019-01-19T03:11:50.215Z,0
2019-01-19T03:12:59.401Z,0
2019-01-19T03:14:09.090Z,0
2019-01-19T03:15:19.016Z,0
2019-01-19T03:16:28.451Z,0
2019-01-19T03:17:38.393Z,0
2019-01-19T03:18:47.836Z,0
2019-01-19T03:19:57.521Z,0
2019-01-19T03:21:07.231Z,0
2019-01-19T03:22:16.913Z,0
2019-01-19T03:23:26.842Z,0
2019-01-19T03:24:36.776Z,0
2019-01-19T03:25:46.724Z,0
2019-01-19T03:26:56.659Z,0
2019-01-19T03:28:06.579Z,0
2019-01-19T03:29:16.527Z,0
2019-01-19T03:30:26.516Z,0
2019-01-19T03:31:36.487Z,0
2019-01-19T03:32:46.478Z,0
2019-01-19T03:33:56.230Z,0
2019-01-19T03:35:05.938Z,0
2019-01-19T03:36:15.888Z,0
2019-01-19T03:37:25.318Z,0
2019-01-19T03:38:35.053Z,0
2019-01-19T03:39:44.761Z,0
2019-01-19T03:40:54.686Z,0
2019-01-19T03:42:04.668Z,0
2019-01-19T03:43:14.382Z,0
2019-01-19T03:44:24.069Z,0
2019-01-19T03:45:34.004Z,0
2019-01-19T03:46:43.940Z,0
2019-01-19T03:47:53.881Z,0
2019-01-19T03:49:03.333Z,0
2019-01-19T03:50:12.807Z,0
2019-01-19T03:51:22.733Z,0
2019-01-19T03:52:32.666Z,0
2019-01-19T03:53:42.590Z,0
2019-01-19T03:54:52.278Z,0
2019-01-19T03:56:01.972Z,0
2019-01-19T03:57:11.910Z,0
2019-01-19T03:58:21.854Z,0
2019-01-19T03:59:31.556Z,0
2019-01-19T04:00:41.237Z,0
2019-01-19T04:01:50.941Z,0
2019-01-19T04:03:00.871Z,0
2019-01-19T04:04:10.320Z,0
2019-01-19T04:05:20.276Z,0
2019-01-19T04:06:30.249Z,0
2019-01-19T04:07:39.935Z,0
2019-01-19T04:08:49.626Z,0
2019-01-19T04:09:59.573Z,0
2019-01-19T04:11:09.505Z,0
2019-01-19T04:12:19.192Z,0
2019-01-19T04:13:29.230Z,0
2019-01-19T04:14:39.175Z,0
2019-01-19T04:15:49.116Z,0
2019-01-19T04:16:59.075Z,0
2019-01-19T04:18:08.527Z,0
2019-01-19T04:19:18.218Z,0
2019-01-19T04:20:28.174Z,0
2019-01-19T04:21:37.622Z,0
2019-01-19T04:22:47.588Z,0
2019-01-19T04:23:57.522Z,0
2019-01-19T04:25:07.205Z,0
2019-01-19T04:26:17.149Z,0
2019-01-19T04:27:27.083Z,0
2019-01-19T04:28:36.781Z,0
2019-01-19T04:29:46.219Z,0
2019-01-19T04:30:56.668Z,0
2019-01-19T04:32:05.618Z,0
2019-01-19T04:33:15.307Z,0
2019-01-19T04:34:25.007Z,0
2019-01-19T04:35:34.951Z,0
2019-01-19T04:36:44.689Z,0
2019-01-19T04:37:54.616Z,0
2019-01-19T04:39:04.563Z,0
2019-01-19T04:40:14.263Z,0
2019-01-19T04:41:24.240Z,0
2019-01-19T04:42:34.171Z,0
2019-01-19T04:43:44.106Z,0
2019-01-19T04:44:53.799Z,0
2019-01-19T04:46:03.776Z,0
2019-01-19T04:47:13.713Z,0
2019-01-19T04:48:23.648Z,0
2019-01-19T04:49:33.598Z,0
2019-01-19T04:50:43.531Z,0
2019-01-19T04:51:53.225Z,0
2019-01-19T04:53:02.917Z,0
2019-01-19T04:54:12.846Z,0
2019-01-19T04:55:22.448Z,0
2019-01-19T04:56:32.387Z,0
2019-01-19T04:57:42.065Z,0
2019-01-19T04:58:51.515Z,0
2019-01-19T05:00:01.465Z,0
2019-01-19T05:01:11.415Z,0
2019-01-19T05:02:21.355Z,0
2019-01-19T05:03:31.325Z,0
2019-01-19T05:04:41.260Z,0
2019-01-19T05:05:51.217Z,0
2019-01-19T05:07:00.905Z,0
2019-01-19T05:08:10.587Z,0
2019-01-19T05:09:20.025Z,0
2019-01-19T05:10:29.463Z,0
2019-01-19T05:11:39.170Z,0
2019-01-19T05:12:49.125Z,0
2019-01-19T05:13:58.804Z,0
2019-01-19T05:15:08.762Z,0
2019-01-19T05:16:18.455Z,0
2019-01-19T05:17:28.164Z,0
2019-01-19T05:18:38.106Z,0
2019-01-19T05:19:48.080Z,0
2019-01-19T05:20:58.019Z,0
2019-01-19T05:22:07.959Z,0
2019-01-19T05:23:17.520Z,0
2019-01-19T05:24:27.461Z,0
2019-01-19T05:25:37.396Z,0
2019-01-19T05:26:47.334Z,0
2019-01-19T05:27:57.269Z,0
2019-01-19T05:29:07.206Z,0
2019-01-19T05:30:17.133Z,0
2019-01-19T05:31:26.821Z,0
2019-01-19T05:32:36.765Z,0
2019-01-19T05:33:46.711Z,0
2019-01-19T05:34:56.642Z,0
2019-01-19T05:36:06.335Z,0
2019-01-19T05:37:16.023Z,0
2019-01-19T05:38:25.464Z,0
2019-01-19T05:39:34.905Z,0
2019-01-19T05:40:44.590Z,0
2019-01-19T05:41:54.535Z,0
2019-01-19T05:43:04.484Z,0
2019-01-19T05:44:14.433Z,0
2019-01-19T05:45:24.371Z,0
2019-01-19T05:46:34.304Z,0
2019-01-19T05:47:44.003Z,0
2019-01-19T05:48:53.969Z,0
2019-01-19T05:50:03.927Z,0
2019-01-19T05:51:13.863Z,0
2019-01-19T05:52:23.584Z,0
2019-01-19T05:53:33.279Z,0
2019-01-19T05:54:42.969Z,0
2019-01-19T05:55:52.927Z,0
2019-01-19T05:57:02.121Z,0
2019-01-19T05:58:11.575Z,0
2019-01-19T05:59:21.524Z,0
2019-01-19T06:00:31.225Z,0
2019-01-19T06:01:40.927Z,0
2019-01-19T06:02:50.642Z,0
2019-01-19T06:04:00.340Z,0
2019-01-19T06:05:10.041Z,0
2019-01-19T06:06:20.002Z,0
2019-01-19T06:07:29.921Z,0
2019-01-19T06:08:39.893Z,0
2019-01-19T06:09:49.605Z,0
2019-01-19T06:10:59.545Z,0
2019-01-19T06:12:09.245Z,0
2019-01-19T06:13:19.177Z,0
2019-01-19T06:14:29.109Z,0
2019-01-19T06:15:38.843Z,0
2019-01-19T06:16:48.804Z,0
2019-01-19T06:17:58.503Z,0
2019-01-19T06:19:08.449Z,0
2019-01-19T06:20:18.134Z,0
2019-01-19T06:21:28.327Z,0
2019-01-19T06:22:38.013Z,0
2019-01-19T06:23:47.941Z,0
2019-01-19T06:24:57.634Z,0
2019-01-19T06:26:07.677Z,0
2019-01-19T06:27:17.388Z,0
2019-01-19T06:28:26.821Z,0
2019-01-19T06:29:36.524Z,0
2019-01-19T06:30:45.954Z,0
2019-01-19T06:31:55.938Z,0
2019-01-19T06:33:05.643Z,0
2019-01-19T06:34:15.355Z,0
2019-01-19T06:35:25.047Z,0
2019-01-19T06:36:35.013Z,0
2019-01-19T06:37:44.973Z,0
2019-01-19T06:38:54.675Z,0
2019-01-19T06:40:04.652Z,0
2019-01-19T06:41:14.591Z,0
2019-01-19T06:42:24.521Z,0
2019-01-19T06:43:34.212Z,0
2019-01-19T06:44:43.652Z,0
2019-01-19T06:45:53.335Z,0
2019-01-19T06:47:03.279Z,0
2019-01-19T06:48:12.971Z,0
2019-01-19T06:49:22.669Z,0
2019-01-19T06:50:32.380Z,0
2019-01-19T06:51:42.075Z,0
2019-01-19T06:52:51.770Z,0
2019-01-19T06:54:08.652Z,0
2019-01-19T06:55:18.088Z,0
2019-01-19T06:56:27.526Z,5
2019-01-19T06:57:37.243Z,5
2019-01-19T06:58:47.195Z,5
2019-01-19T06:59:57.141Z,5
2019-01-19T07:01:07.094Z,5
2019-01-19T07:02:17.028Z,5
2019-01-19T07:03:26.973Z,10
2019-01-19T07:04:36.922Z,10
2019-01-19T07:05:46.611Z,10
2019-01-19T07:07:02.462Z,10
2019-01-19T07:08:12.417Z,15
2019-01-19T07:09:22.098Z,15
2019-01-19T07:10:32.039Z,15
2019-01-19T07:11:41.734Z,20
2019-01-19T07:12:51.416Z,20
2019-01-19T07:14:01.547Z,20
2019-01-19T07:15:11.230Z,25
2019-01-19T07:16:20.660Z,25
2019-01-19T07:17:30.358Z,25
2019-01-19T07:18:40.045Z,30
2019-01-19T07:19:50.032Z,30
2019-01-19T07:20:59.961Z,30
2019-01-19T07:22:09.906Z,35
2019-01-19T07:23:19.836Z,35
2019-01-19T07:24:29.530Z,40
2019-01-19T07:25:39.464Z,40
2019-01-19T07:26:49.157Z,45
2019-01-19T07:27:58.843Z,45
2019-01-19T07:29:08.777Z,50
2019-01-19T07:30:18.714Z,55
2019-01-19T07:31:28.653Z,55
2019-01-19T07:32:38.584Z,60
2019-01-19T07:33:48.541Z,60
2019-01-19T07:34:58.249Z,60
2019-01-19T07:36:08.208Z,65
2019-01-19T07:37:19.538Z,70
2019-01-19T07:38:29.489Z,80
2019-01-19T07:39:38.935Z,85
2019-01-19T07:40:48.387Z,85
2019-01-19T07:41:58.070Z,90
2019-01-19T07:43:08.006Z,90
2019-01-19T07:44:17.935Z,95
2019-01-19T07:45:27.637Z,95
2019-01-19T07:46:37.602Z,100
2019-01-19T07:47:47.539Z,100
2019-01-19T07:48:57.502Z,100
2019-01-19T07:50:07.190Z,105
2019-01-19T07:51:18.682Z,105
2019-01-19T07:52:28.638Z,105
2019-01-19T07:53:38.576Z,105
2019-01-19T07:54:48.269Z,105
2019-01-19T07:55:57.450Z,110
2019-01-19T07:57:07.236Z,110
2019-01-19T07:58:16.935Z,110
2019-01-19T07:59:26.720Z,115
2019-01-19T08:00:35.915Z,120
2019-01-19T08:01:45.612Z,125
2019-01-19T08:02:55.061Z,120
2019-01-19T08:04:05.012Z,120
2019-01-19T08:05:15.954Z,125
2019-01-19T08:06:25.658Z,125
2019-01-19T08:07:35.597Z,130
2019-01-19T08:08:45.558Z,135
2019-01-19T08:09:55.497Z,135
2019-01-19T08:11:05.454Z,145
2019-01-19T08:12:15.413Z,150
2019-01-19T08:13:25.357Z,150
2019-01-19T08:14:35.295Z,155
2019-01-19T08:15:44.994Z,165
2019-01-19T08:16:54.695Z,165
2019-01-19T08:18:04.391Z,170
2019-01-19T08:19:14.335Z,170
2019-01-19T08:20:24.018Z,175
2019-01-19T08:21:33.968Z,180
2019-01-19T08:22:43.948Z,185
2019-01-19T08:23:53.648Z,195
2019-01-19T08:25:03.119Z,200
2019-01-19T08:26:13.129Z,210
2019-01-19T08:27:23.090Z,215
2019-01-19T08:28:33.042Z,230
2019-01-19T08:29:42.728Z,235
2019-01-19T08:30:52.428Z,245
2019-01-19T08:32:01.905Z,260
2019-01-19T08:33:11.615Z,275
2019-01-19T08:34:21.576Z,290
2019-01-19T08:35:31.260Z,300
2019-01-19T08:36:41.220Z,315
2019-01-19T08:37:50.678Z,320
2019-01-19T08:39:00.676Z,340
2019-01-19T08:40:10.628Z,345
2019-01-19T08:41:20.326Z,375
2019-01-19T08:42:30.272Z,380
2019-01-19T08:43:40.208Z,395
2019-01-19T08:44:50.148Z,410
2019-01-19T08:45:59.842Z,415
2019-01-19T08:47:09.274Z,420
2019-01-19T08:48:18.980Z,430
2019-01-19T08:49:28.930Z,435
2019-01-19T08:50:38.874Z,430
2019-01-19T08:51:48.888Z,450
2019-01-19T08:52:58.872Z,455
2019-01-19T08:54:08.820Z,460
2019-01-19T08:55:18.262Z,470
2019-01-19T08:56:28.218Z,470
2019-01-19T08:57:37.907Z,465
2019-01-19T08:58:47.616Z,485
2019-01-19T08:59:57.562Z,495
2019-01-19T09:01:07.524Z,500
2019-01-19T09:02:19.038Z,515
2019-01-19T09:03:28.726Z,530
2019-01-19T09:04:38.672Z,530
2019-01-19T09:05:48.623Z,540
2019-01-19T09:06:58.314Z,550
2019-01-19T09:08:07.755Z,555
2019-01-19T09:09:17.461Z,575
2019-01-19T09:10:27.145Z,595
2019-01-19T09:11:36.844Z,605
2019-01-19T09:12:46.795Z,625
2019-01-19T09:13:56.757Z,635
2019-01-19T09:15:06.439Z,630
2019-01-19T09:16:16.149Z,645
2019-01-19T09:17:26.105Z,665
2019-01-19T09:18:36.852Z,665
2019-01-19T09:19:46.820Z,665
2019-01-19T09:20:56.768Z,680
2019-01-19T09:22:06.463Z,665
2019-01-19T09:23:16.148Z,550
2019-01-19T09:24:25.838Z,585
2019-01-19T09:25:35.788Z,595
2019-01-19T09:26:45.728Z,635
2019-01-19T09:27:55.684Z,690
2019-01-19T09:29:05.642Z,695
2019-01-19T09:30:15.094Z,690
2019-01-19T09:31:25.048Z,720
2019-01-19T09:32:34.998Z,720
2019-01-19T09:33:44.686Z,745
2019-01-19T09:34:54.388Z,810
2019-01-19T09:36:04.112Z,780
2019-01-19T09:37:13.814Z,765
2019-01-19T09:38:23.804Z,760
2019-01-19T09:39:33.765Z,785
2019-01-19T09:40:43.713Z,760
2019-01-19T09:41:53.407Z,740
2019-01-19T09:43:03.402Z,785
2019-01-19T09:44:13.357Z,790
2019-01-19T09:45:23.291Z,825
2019-01-19T09:46:33.000Z,820
2019-01-19T09:47:42.946Z,775
2019-01-19T09:48:54.052Z,800
2019-01-19T09:50:03.774Z,890
2019-01-19T09:51:13.762Z,910
2019-01-19T09:52:30.392Z,935
2019-01-19T09:53:40.334Z,970
2019-01-19T09:54:50.034Z,970
2019-01-19T09:55:59.981Z,1040
2019-01-19T09:57:09.915Z,995
2019-01-19T09:58:19.892Z,975
2019-01-19T09:59:29.612Z,975
2019-01-19T10:00:52.788Z,970
2019-01-19T10:02:02.768Z,975
2019-01-19T10:03:13.937Z,930
2019-01-19T10:04:23.989Z,905
2019-01-19T10:05:33.937Z,885
2019-01-19T10:06:43.942Z,940
2019-01-19T10:07:57.865Z,945
2019-01-19T10:09:08.154Z,985
2019-01-19T10:10:17.879Z,1025
2019-01-19T10:11:27.819Z,1035
2019-01-19T10:12:37.766Z,1055
2019-01-19T10:13:47.726Z,1085
2019-01-19T10:14:57.668Z,1100
2019-01-19T10:16:07.628Z,1095
2019-01-19T10:17:17.582Z,1145
2019-01-19T10:18:27.282Z,1155
2019-01-19T10:19:37.228Z,1130
2019-01-19T10:20:47.182Z,1085
2019-01-19T10:21:57.118Z,1095
2019-01-19T10:23:06.804Z,1125
2019-01-19T10:24:16.757Z,1185
2019-01-19T10:25:26.706Z,1205
2019-01-19T10:26:36.671Z,1195
2019-01-19T10:27:46.569Z,1195
2019-01-19T10:28:56.291Z,1155
2019-01-19T10:30:06.234Z,1185
2019-01-19T10:31:16.181Z,1175
2019-01-19T10:32:26.131Z,1135
2019-01-19T10:33:36.088Z,1065
2019-01-19T10:34:45.785Z,1010
2019-01-19T10:35:55.235Z,1060
2019-01-19T10:37:05.200Z,1060
2019-01-19T10:38:15.178Z,1095
2019-01-19T10:39:25.166Z,1165
2019-01-19T10:40:35.144Z,1180
2019-01-19T10:41:50.258Z,1195
2019-01-19T10:42:59.972Z,1185
2019-01-19T10:44:09.667Z,1105
2019-01-19T10:45:19.374Z,1160
2019-01-19T10:46:29.321Z,1250
2019-01-19T10:47:39.026Z,1235
2019-01-19T10:48:48.955Z,1260
2019-01-19T10:49:58.663Z,1285
2019-01-19T10:51:08.619Z,1315
2019-01-19T10:52:18.311Z,1360
2019-01-19T10:53:28.277Z,1375
2019-01-19T10:54:37.959Z,1340
2019-01-19T10:55:47.905Z,1290
2019-01-19T10:56:57.588Z,1295
2019-01-19T10:58:07.050Z,1295
2019-01-19T10:59:16.762Z,1255
2019-01-19T11:00:26.477Z,1175
2019-01-19T11:01:36.458Z,1195
2019-01-19T11:02:46.412Z,1210
2019-01-19T11:03:56.111Z,1100
2019-01-19T11:05:06.074Z,1100
2019-01-19T11:06:15.788Z,1140
2019-01-19T11:07:25.753Z,1130
2019-01-19T11:08:35.718Z,1175
2019-01-19T11:09:45.675Z,1190
2019-01-19T11:10:55.625Z,1195
2019-01-19T11:12:05.573Z,1220
2019-01-19T11:13:15.288Z,1205
2019-01-19T11:14:24.976Z,1210
2019-01-19T11:15:34.924Z,1145
2019-01-19T11:16:44.371Z,1140
2019-01-19T11:17:54.092Z,1105
2019-01-19T11:19:04.045Z,1155
2019-01-19T11:20:13.999Z,1095
2019-01-19T11:21:24.020Z,1180
2019-01-19T11:22:33.729Z,1265
2019-01-19T11:23:49.341Z,1350
2019-01-19T11:24:59.027Z,1385
2019-01-19T11:26:08.731Z,1375
2019-01-19T11:27:18.455Z,1325
2019-01-19T11:28:28.399Z,1375
2019-01-19T11:29:38.085Z,1415
2019-01-19T11:30:48.022Z,1405
2019-01-19T11:31:57.962Z,1505
2019-01-19T11:33:08.376Z,1385
2019-01-19T11:34:18.321Z,1420
2019-01-19T11:35:28.022Z,1410
2019-01-19T11:36:37.747Z,1415
2019-01-19T11:37:47.682Z,1450
2019-01-19T11:38:57.667Z,1325
2019-01-19T11:40:07.383Z,1305
2019-01-19T11:41:17.159Z,1315
2019-01-19T11:42:27.121Z,1300
2019-01-19T11:43:37.139Z,1290
2019-01-19T11:44:47.082Z,1325
2019-01-19T11:45:57.023Z,1250
2019-01-19T11:47:06.481Z,1170
2019-01-19T11:48:16.187Z,1165
2019-01-19T11:49:26.116Z,1100
2019-01-19T11:50:36.062Z,1090
2019-01-19T11:51:45.514Z,1110
2019-01-19T11:52:55.484Z,1175
2019-01-19T11:54:05.439Z,1200
2019-01-19T11:55:15.415Z,1205
2019-01-19T11:56:25.133Z,1210
2019-01-19T11:57:34.850Z,1195
2019-01-19T11:58:44.551Z,1170
2019-01-19T11:59:54.497Z,1155
2019-01-19T12:01:04.448Z,1110
2019-01-19T12:02:14.155Z,1145
2019-01-19T12:03:24.115Z,1120
2019-01-19T12:04:35.422Z,1150
2019-01-19T12:05:45.371Z,1235
2019-01-19T12:06:55.317Z,1210
2019-01-19T12:08:05.318Z,1195
2019-01-19T12:09:15.008Z,1235
2019-01-19T12:10:24.973Z,1140
2019-01-19T12:11:34.965Z,1250
2019-01-19T12:12:44.916Z,1280
2019-01-19T12:13:54.871Z,1290
2019-01-19T12:15:05.015Z,1340
2019-01-19T12:16:14.714Z,1345
2019-01-19T12:17:24.668Z,1310
2019-01-19T12:18:34.115Z,1265
2019-01-19T12:19:44.083Z,1230
2019-01-19T12:20:54.026Z,1215
2019-01-19T12:22:03.968Z,1245
2019-01-19T12:23:13.692Z,1235
2019-01-19T12:24:23.403Z,1225
2019-01-19T12:25:33.377Z,1260
2019-01-19T12:26:43.064Z,1275
2019-01-19T12:27:53.001Z,1260
2019-01-19T12:29:02.984Z,1270
2019-01-19T12:30:12.969Z,1190
2019-01-19T12:31:22.677Z,1180
2019-01-19T12:32:32.642Z,1235
2019-01-19T12:33:42.582Z,1280
2019-01-19T12:34:52.539Z,1310
2019-01-19T12:36:02.489Z,1290
2019-01-19T12:37:12.199Z,1315
2019-01-19T12:38:28.897Z,1325
2019-01-19T12:39:38.856Z,1350
2019-01-19T12:40:48.799Z,1320
2019-01-19T12:41:58.729Z,1285
2019-01-19T12:43:08.677Z,1255
2019-01-19T12:44:18.381Z,1270
2019-01-19T12:45:28.112Z,1280
2019-01-19T12:46:38.072Z,1255
2019-01-19T12:47:47.511Z,1205
2019-01-19T12:48:57.219Z,1145
2019-01-19T12:50:07.233Z,1135
2019-01-19T12:51:16.679Z,1140
2019-01-19T12:52:26.631Z,1145
2019-01-19T12:53:36.330Z,1130
2019-01-19T12:54:46.276Z,1120
2019-01-19T12:55:56.246Z,1165
2019-01-19T12:57:06.217Z,1180
2019-01-19T12:58:15.920Z,1245
2019-01-19T12:59:25.872Z,1205
2019-01-19T13:00:35.830Z,1185
2019-01-19T13:01:45.789Z,1225
2019-01-19T13:02:55.264Z,1320
2019-01-19T13:04:05.226Z,1305
2019-01-19T13:05:15.169Z,1265
2019-01-19T13:06:25.128Z,1250
2019-01-19T13:07:35.109Z,1265
2019-01-19T13:08:45.074Z,1245
2019-01-19T13:09:55.038Z,1230
2019-01-19T13:11:05.006Z,1255
2019-01-19T13:12:14.951Z,1240
2019-01-19T13:13:24.673Z,1200
2019-01-19T13:14:34.356Z,1190
2019-01-19T13:15:44.318Z,1155
2019-01-19T13:16:54.015Z,1010
2019-01-19T13:18:03.765Z,875
2019-01-19T13:19:13.710Z,970
2019-01-19T13:20:23.664Z,980
2019-01-19T13:21:33.606Z,950
2019-01-19T13:22:43.538Z,915
2019-01-19T13:23:54.922Z,885
2019-01-19T13:25:04.742Z,875
2019-01-19T13:26:14.458Z,860
2019-01-19T13:27:24.409Z,855
2019-01-19T13:28:34.104Z,810
2019-01-19T13:29:44.070Z,785
2019-01-19T13:30:54.046Z,750
2019-01-19T13:32:03.992Z,760
2019-01-19T13:33:13.954Z,800
2019-01-19T13:34:23.647Z,800
2019-01-19T13:35:33.363Z,780
2019-01-19T13:36:43.353Z,790
2019-01-19T13:37:53.043Z,775
2019-01-19T13:39:03.018Z,790
2019-01-19T13:40:13.009Z,785
2019-01-19T13:41:22.780Z,775
2019-01-19T13:42:32.476Z,770
2019-01-19T13:43:42.440Z,765
2019-01-19T13:44:52.411Z,710
2019-01-19T13:46:02.865Z,695
2019-01-19T13:47:12.560Z,700
2019-01-19T13:48:22.497Z,695
2019-01-19T13:49:32.220Z,695
2019-01-19T13:50:41.932Z,670
2019-01-19T13:51:51.632Z,625
2019-01-19T13:53:05.565Z,585
2019-01-19T13:54:15.509Z,565
2019-01-19T13:55:24.872Z,535
2019-01-19T13:56:34.717Z,520
2019-01-19T13:57:44.691Z,505
2019-01-19T13:58:54.959Z,500
2019-01-19T14:00:04.924Z,490
2019-01-19T14:01:14.888Z,475
2019-01-19T14:02:26.583Z,455
2019-01-19T14:03:36.279Z,440
2019-01-19T14:04:45.973Z,425
2019-01-19T14:05:55.415Z,420
2019-01-19T14:07:05.374Z,410
2019-01-19T14:08:15.326Z,390
2019-01-19T14:09:25.002Z,380
2019-01-19T14:10:34.960Z,360
2019-01-19T14:11:44.915Z,345
2019-01-19T14:12:54.629Z,330
2019-01-19T14:14:04.591Z,310
2019-01-19T14:15:14.539Z,295
2019-01-19T14:16:24.490Z,285
2019-01-19T14:17:34.421Z,265
2019-01-19T14:18:44.133Z,255
2019-01-19T14:19:54.074Z,240
2019-01-19T14:21:04.016Z,235
2019-01-19T14:22:13.456Z,225
2019-01-19T14:23:23.169Z,220
2019-01-19T14:24:33.132Z,215
2019-01-19T14:25:43.098Z,210
2019-01-19T14:26:53.063Z,205
2019-01-19T14:28:03.006Z,205
2019-01-19T14:29:12.974Z,195
2019-01-19T14:30:22.975Z,185
2019-01-19T14:31:32.677Z,175
2019-01-19T14:32:42.384Z,170
2019-01-19T14:33:52.074Z,160
2019-01-19T14:35:02.030Z,150
2019-01-19T14:36:11.723Z,140
2019-01-19T14:37:21.408Z,135
2019-01-19T14:38:31.356Z,135
2019-01-19T14:39:41.314Z,130
2019-01-19T14:40:51.002Z,130
2019-01-19T14:42:00.946Z,130
2019-01-19T14:43:10.633Z,130
2019-01-19T14:44:20.592Z,130
2019-01-19T14:45:30.283Z,125
2019-01-19T14:46:40.257Z,125
2019-01-19T14:47:49.948Z,120
2019-01-19T14:48:59.644Z,115
2019-01-19T14:50:09.478Z,110
2019-01-19T14:51:19.475Z,105
2019-01-19T14:52:29.428Z,100
2019-01-19T14:53:39.365Z,100
2019-01-19T14:54:50.396Z,100
2019-01-19T14:55:59.843Z,95
2019-01-19T14:57:09.556Z,90
2019-01-19T14:58:19.510Z,85
2019-01-19T14:59:29.224Z,80
2019-01-19T15:00:38.918Z,75
2019-01-19T15:01:48.424Z,70
2019-01-19T15:02:58.366Z,65
2019-01-19T15:04:08.058Z,60
2019-01-19T15:05:17.993Z,55
2019-01-19T15:06:27.930Z,55
2019-01-19T15:07:37.889Z,55
2019-01-19T15:08:47.844Z,50
2019-01-19T15:09:57.795Z,45
2019-01-19T15:11:07.494Z,45
2019-01-19T15:12:17.450Z,40
2019-01-19T15:13:27.149Z,40
2019-01-19T15:14:36.833Z,35
2019-01-19T15:15:46.513Z,35
2019-01-19T15:16:56.204Z,35
2019-01-19T15:18:06.153Z,30
2019-01-19T15:19:16.087Z,25
2019-01-19T15:20:25.789Z,20
2019-01-19T15:21:35.724Z,20
2019-01-19T15:22:45.675Z,20
2019-01-19T15:23:55.608Z,15
2019-01-19T15:25:05.303Z,15
2019-01-19T15:26:15.248Z,15
2019-01-19T15:27:25.196Z,10
2019-01-19T15:28:35.174Z,10
2019-01-19T15:29:45.122Z,10
2019-01-19T15:30:54.577Z,10
2019-01-19T15:32:04.308Z,10
2019-01-19T15:33:14.331Z,5
2019-01-19T15:34:25.330Z,5
2019-01-19T15:35:35.437Z,5
2019-01-19T15:36:45.113Z,5
2019-01-19T15:37:54.301Z,5
2019-01-19T15:39:10.740Z,5
2019-01-19T15:40:20.597Z,5
2019-01-19T15:41:30.554Z,5
2019-01-19T15:42:40.242Z,0
2019-01-19T15:43:49.950Z,0
2019-01-19T15:44:59.906Z,0
2019-01-19T15:46:09.352Z,0
2019-01-19T15:47:19.055Z,0
2019-01-19T15:48:28.749Z,0
2019-01-19T15:49:38.437Z,0
2019-01-19T15:50:48.383Z,0
2019-01-19T15:51:58.326Z,0
2019-01-19T15:53:08.289Z,0
2019-01-19T15:54:18.228Z,0
2019-01-19T15:55:28.185Z,0
2019-01-19T15:56:38.175Z,0
2019-01-19T15:57:47.898Z,0
2019-01-19T15:58:57.589Z,0
2019-01-19T16:00:07.598Z,0
2019-01-19T16:01:17.287Z,0
2019-01-19T16:02:26.976Z,0
2019-01-19T16:03:36.913Z,0
2019-01-19T16:04:46.877Z,0
2019-01-19T16:05:56.809Z,0
2019-01-19T16:07:06.255Z,0
2019-01-19T16:08:16.194Z,0
2019-01-19T16:09:27.901Z,0
2019-01-19T16:10:37.358Z,0
2019-01-19T16:11:47.330Z,0
2019-01-19T16:12:57.032Z,0
2019-01-19T16:14:06.995Z,0
2019-01-19T16:15:16.701Z,0
2019-01-19T16:16:26.654Z,0
2019-01-19T16:17:36.087Z,0
2019-01-19T16:18:46.108Z,0
2019-01-19T16:19:55.823Z,0
2019-01-19T16:21:05.508Z,0
2019-01-19T16:22:15.209Z,0
2019-01-19T16:23:25.168Z,0
2019-01-19T16:24:34.620Z,0
2019-01-19T16:25:44.303Z,0
2019-01-19T16:26:53.987Z,0
2019-01-19T16:28:03.933Z,0
2019-01-19T16:29:13.890Z,0
2019-01-19T16:30:23.340Z,0
2019-01-19T16:31:34.873Z,0
2019-01-19T16:32:44.828Z,0